createdAt,value
2019-06-07T00:00:44.345Z,17.98
2019-06-07T00:01:50.426Z,17.98
2019-06-07T00:02:55.321Z,17.95
2019-06-07T00:04:00.836Z,17.94
2019-06-07T00:05:10.148Z,17.94
2019-06-07T00:06:21.304Z,17.92
2019-06-07T00:07:23.607Z,17.91
2019-06-07T00:08:29.654Z,17.90
2019-06-07T00:09:34.914Z,17.89
2019-06-07T00:10:40.510Z,17.88
2019-06-07T00:11:45.379Z,17.87
2019-06-07T00:12:51.192Z,17.87
2019-06-07T00:13:56.156Z,17.87
2019-06-07T00:15:01.646Z,17.85
2019-06-07T00:16:08.548Z,17.84
2019-06-07T00:17:19.637Z,17.85
2019-06-07T00:18:26.165Z,17.84
2019-06-07T00:19:31.144Z,17.83
2019-06-07T00:20:36.059Z,17.82
2019-06-07T00:22:13.804Z,17.82
2019-06-07T00:22:48.594Z,17.81
2019-06-07T00:23:54.229Z,17.80
2019-06-07T00:24:59.377Z,17.79
2019-06-07T00:26:05.197Z,17.79
2019-06-07T00:27:11.633Z,17.77
2019-06-07T00:28:18.818Z,17.78
2019-06-07T00:29:24.343Z,17.76
2019-06-07T00:30:41.014Z,17.76
2019-06-07T00:31:36.832Z,17.74
2019-06-07T00:32:42.418Z,17.71
2019-06-07T00:33:47.913Z,17.69
2019-06-07T00:34:53.515Z,17.67
2019-06-07T00:35:58.414Z,17.65
2019-06-07T00:37:04.241Z,17.64
2019-06-07T00:38:09.460Z,17.61
2019-06-07T00:39:21.928Z,17.60
2019-06-07T00:40:31.477Z,17.58
2019-06-07T00:41:29.821Z,17.57
2019-06-07T00:42:38.266Z,17.56
2019-06-07T00:43:43.739Z,17.56
2019-06-07T00:44:49.168Z,17.55
2019-06-07T00:45:54.707Z,17.54
2019-06-07T00:46:59.666Z,17.54
2019-06-07T00:48:05.598Z,17.54
2019-06-07T00:49:13.352Z,17.53
2019-06-07T00:50:21.931Z,17.54
2019-06-07T00:51:24.585Z,17.53
2019-06-07T00:53:36.856Z,17.52
2019-06-07T00:54:42.695Z,17.52
2019-06-07T00:55:47.898Z,17.51
2019-06-07T00:56:53.432Z,17.51
2019-06-07T00:57:58.664Z,17.51
2019-06-07T00:59:11.067Z,17.50
2019-06-07T01:00:12.304Z,17.50
2019-06-07T01:01:22.260Z,17.50
2019-06-07T01:02:29.108Z,17.49
2019-06-07T01:03:31.977Z,17.48
2019-06-07T01:04:36.892Z,17.48
2019-06-07T01:05:42.351Z,17.46
2019-06-07T01:06:47.354Z,17.44
2019-06-07T01:07:52.927Z,17.43
2019-06-07T01:08:57.795Z,17.43
2019-06-07T01:10:03.499Z,17.41
2019-06-07T01:11:08.617Z,17.42
2019-06-07T01:12:18.114Z,17.41
2019-06-07T01:13:23.838Z,17.41
2019-06-07T01:14:29.012Z,17.39
2019-06-07T01:15:34.150Z,17.38
2019-06-07T01:16:56.753Z,17.38
2019-06-07T01:18:32.534Z,17.36
2019-06-07T01:18:53.898Z,17.34
2019-06-07T01:19:58.904Z,17.33
2019-06-07T01:21:04.398Z,17.33
2019-06-07T01:22:09.343Z,17.30
2019-06-07T01:23:57.371Z,17.29
2019-06-07T01:24:24.458Z,17.28
2019-06-07T01:25:29.188Z,17.27
2019-06-07T01:26:34.181Z,17.27
2019-06-07T01:27:40.058Z,17.25
2019-06-07T01:28:45.226Z,17.24
2019-06-07T01:29:50.806Z,17.22
2019-06-07T01:30:56.003Z,17.23
2019-06-07T01:32:01.519Z,17.21
2019-06-07T01:33:06.441Z,17.19
2019-06-07T01:34:11.930Z,17.18
2019-06-07T01:35:20.055Z,17.16
2019-06-07T01:36:28.919Z,17.15
2019-06-07T01:37:31.049Z,17.14
2019-06-07T01:38:36.616Z,17.14
2019-06-07T01:39:41.748Z,17.13
2019-06-07T01:40:47.296Z,17.11
2019-06-07T01:41:52.209Z,17.12
2019-06-07T01:42:57.992Z,17.11
2019-06-07T01:44:02.975Z,17.10
2019-06-07T01:45:09.424Z,17.11
2019-06-07T01:46:14.337Z,17.10
2019-06-07T01:47:21.256Z,17.09
2019-06-07T01:48:45.308Z,17.08
2019-06-07T01:49:33.795Z,17.07
2019-06-07T01:50:38.925Z,17.06
2019-06-07T01:51:44.727Z,17.05
2019-06-07T01:52:49.707Z,17.05
2019-06-07T01:54:41.565Z,17.04
2019-06-07T01:55:02.431Z,17.03
2019-06-07T01:56:08.180Z,17.02
2019-06-07T01:57:31.129Z,17.02
2019-06-07T01:58:22.080Z,17.01
2019-06-07T01:59:28.474Z,17.00
2019-06-07T02:00:34.298Z,17.00
2019-06-07T02:01:39.144Z,16.99
2019-06-07T02:02:44.742Z,17.00
2019-06-07T02:03:50.064Z,16.99
2019-06-07T02:04:55.649Z,16.98
2019-06-07T02:06:00.637Z,16.96
2019-06-07T02:07:06.666Z,16.94
2019-06-07T02:08:11.783Z,16.93
2019-06-07T02:09:18.467Z,16.91
2019-06-07T02:10:27.447Z,16.90
2019-06-07T02:11:31.816Z,16.88
2019-06-07T02:12:43.071Z,16.87
2019-06-07T02:13:44.466Z,16.86
2019-06-07T02:14:49.388Z,16.85
2019-06-07T02:15:54.882Z,16.84
2019-06-07T02:16:59.827Z,16.83
2019-06-07T02:18:05.708Z,16.82
2019-06-07T02:19:10.651Z,16.80
2019-06-07T02:20:16.632Z,16.78
2019-06-07T02:21:25.726Z,16.78
2019-06-07T02:22:32.107Z,16.77
2019-06-07T02:23:35.416Z,16.76
2019-06-07T02:24:40.932Z,16.76
2019-06-07T02:25:50.353Z,16.74
2019-06-07T02:26:53.373Z,16.73
2019-06-07T02:28:25.905Z,16.73
2019-06-07T02:29:05.777Z,16.74
2019-06-07T02:31:19.015Z,16.72
2019-06-07T02:32:25.109Z,16.71
2019-06-07T02:33:39.209Z,16.70
2019-06-07T02:34:39.724Z,16.69
2019-06-07T02:35:45.648Z,16.68
2019-06-07T02:36:50.555Z,16.68
2019-06-07T02:37:56.178Z,16.68
2019-06-07T02:39:01.092Z,16.65
2019-06-07T02:40:07.556Z,16.65
2019-06-07T02:41:12.535Z,16.64
2019-06-07T02:42:18.409Z,16.63
2019-06-07T02:43:24.969Z,16.63
2019-06-07T02:44:35.984Z,16.62
2019-06-07T02:45:43.072Z,16.62
2019-06-07T02:46:49.121Z,16.60
2019-06-07T02:47:51.637Z,16.60
2019-06-07T02:48:57.219Z,16.58
2019-06-07T02:50:02.198Z,16.58
2019-06-07T02:51:07.950Z,16.58
2019-06-07T02:52:12.854Z,16.58
2019-06-07T02:53:18.686Z,16.58
2019-06-07T02:54:24.485Z,16.58
2019-06-07T02:55:37.183Z,16.57
2019-06-07T02:56:52.310Z,16.57
2019-06-07T02:57:45.668Z,16.57
2019-06-07T02:58:50.613Z,16.58
2019-06-07T03:00:16.579Z,16.56
2019-06-07T03:01:09.211Z,16.56
2019-06-07T03:02:10.453Z,16.56
2019-06-07T03:03:16.054Z,16.54
2019-06-07T03:04:21.881Z,16.52
2019-06-07T03:05:27.382Z,16.51
2019-06-07T03:06:38.916Z,16.50
2019-06-07T03:07:45.289Z,16.51
2019-06-07T03:08:49.726Z,16.49
2019-06-07T03:09:56.026Z,16.48
2019-06-07T03:11:03.678Z,16.47
2019-06-07T03:12:11.602Z,16.46
2019-06-07T03:13:22.320Z,16.47
2019-06-07T03:14:28.669Z,16.47
2019-06-07T03:15:47.876Z,16.46
2019-06-07T03:16:52.376Z,16.47
2019-06-07T03:18:21.163Z,16.47
2019-06-07T03:19:37.589Z,16.46
2019-06-07T03:20:43.277Z,16.45
2019-06-07T03:21:49.310Z,16.44
2019-06-07T03:22:55.769Z,16.44
2019-06-07T03:24:00.738Z,16.43
2019-06-07T03:25:06.978Z,16.42
2019-06-07T03:26:12.220Z,16.41
2019-06-07T03:27:41.454Z,16.40
2019-06-07T03:28:25.565Z,16.40
2019-06-07T03:29:32.260Z,16.38
2019-06-07T03:30:57.102Z,16.37
2019-06-07T03:31:47.422Z,16.37
2019-06-07T03:32:52.160Z,16.36
2019-06-07T03:33:57.770Z,16.35
2019-06-07T03:35:02.788Z,16.34
2019-06-07T03:36:23.301Z,16.32
2019-06-07T03:37:15.146Z,16.31
2019-06-07T03:38:20.655Z,16.29
2019-06-07T03:39:28.006Z,16.28
2019-06-07T03:40:36.929Z,16.27
2019-06-07T03:41:49.858Z,16.27
2019-06-07T03:42:47.378Z,16.26
2019-06-07T03:43:52.541Z,16.26
2019-06-07T03:44:58.015Z,16.25
2019-06-07T03:46:02.930Z,16.24
2019-06-07T03:47:08.444Z,16.24
2019-06-07T03:48:13.355Z,16.24
2019-06-07T03:49:18.922Z,16.24
2019-06-07T03:50:24.240Z,16.24
2019-06-07T03:51:30.619Z,16.23
2019-06-07T03:52:40.959Z,16.21
2019-06-07T03:53:44.432Z,16.21
2019-06-07T03:54:49.401Z,16.22
2019-06-07T03:55:54.889Z,16.20
2019-06-07T03:56:59.778Z,16.19
2019-06-07T03:59:12.265Z,16.18
2019-06-07T04:00:18.148Z,16.18
2019-06-07T04:01:23.151Z,16.18
2019-06-07T04:02:30.361Z,16.18
2019-06-07T04:03:43.564Z,16.19
2019-06-07T04:04:42.807Z,16.19
2019-06-07T04:05:47.744Z,16.19
2019-06-07T04:06:53.256Z,16.19
2019-06-07T04:07:58.138Z,16.20
2019-06-07T04:09:03.723Z,16.21
2019-06-07T04:10:08.842Z,16.21
2019-06-07T04:11:14.307Z,16.22
2019-06-07T04:12:19.208Z,16.22
2019-06-07T04:13:24.748Z,16.22
2019-06-07T04:14:30.832Z,16.22
2019-06-07T04:15:40.375Z,16.22
2019-06-07T04:16:44.819Z,16.21
2019-06-07T04:18:02.091Z,16.21
2019-06-07T04:18:57.434Z,16.22
2019-06-07T04:20:03.265Z,16.21
2019-06-07T04:21:08.843Z,16.21
2019-06-07T04:22:14.303Z,16.22
2019-06-07T04:23:30.054Z,16.22
2019-06-07T04:24:28.552Z,16.21
2019-06-07T04:25:37.149Z,16.21
2019-06-07T04:26:44.022Z,16.23
2019-06-07T04:27:47.405Z,16.24
2019-06-07T04:29:31.785Z,16.26
2019-06-07T04:30:07.343Z,16.26
2019-06-07T04:31:07.069Z,16.28
2019-06-07T04:32:11.973Z,16.29
2019-06-07T04:33:17.612Z,16.30
2019-06-07T04:34:22.776Z,16.31
2019-06-07T04:35:31.456Z,16.32
2019-06-07T04:36:45.971Z,16.34
2019-06-07T04:37:44.133Z,16.36
2019-06-07T04:38:50.553Z,16.38
2019-06-07T04:39:57.108Z,16.39
2019-06-07T04:41:04.277Z,16.40
2019-06-07T04:42:11.125Z,16.41
2019-06-07T04:43:16.217Z,16.43
2019-06-07T04:44:24.893Z,16.43
2019-06-07T04:45:36.275Z,16.44
2019-06-07T04:46:42.937Z,16.43
2019-06-07T04:47:49.309Z,16.43
2019-06-07T04:48:55.674Z,16.42
2019-06-07T04:50:02.582Z,16.42
2019-06-07T04:51:09.386Z,16.44
2019-06-07T04:52:14.546Z,16.44
2019-06-07T04:53:20.108Z,16.44
2019-06-07T04:54:25.432Z,16.47
2019-06-07T04:55:31.482Z,16.48
2019-06-07T04:56:38.532Z,16.48
2019-06-07T04:57:43.642Z,16.49
2019-06-07T04:58:48.555Z,16.51
2019-06-07T05:00:11.901Z,16.51
2019-06-07T05:01:03.491Z,16.52
2019-06-07T05:02:08.392Z,16.53
2019-06-07T05:03:13.290Z,16.55
2019-06-07T05:04:19.015Z,16.56
2019-06-07T05:05:24.023Z,16.56
2019-06-07T05:06:30.091Z,16.58
2019-06-07T05:07:37.824Z,16.59
2019-06-07T05:08:44.153Z,16.60
2019-06-07T05:09:49.320Z,16.61
2019-06-07T05:10:54.822Z,16.64
2019-06-07T05:11:59.761Z,16.71
2019-06-07T05:13:05.386Z,16.81
2019-06-07T05:14:10.339Z,16.89
2019-06-07T05:15:15.983Z,16.97
2019-06-07T05:16:20.947Z,17.07
2019-06-07T05:17:26.438Z,17.19
2019-06-07T05:18:33.654Z,17.32
2019-06-07T05:19:41.734Z,17.42
2019-06-07T05:20:45.216Z,17.55
2019-06-07T05:22:03.740Z,17.65
2019-06-07T05:22:57.355Z,17.77
2019-06-07T05:24:09.485Z,17.89
2019-06-07T05:25:09.724Z,18.01
2019-06-07T05:26:15.227Z,18.14
2019-06-07T05:27:20.128Z,18.27
2019-06-07T05:28:25.752Z,18.38
2019-06-07T05:29:33.278Z,18.49
2019-06-07T05:31:46.784Z,18.66
2019-06-07T05:32:52.758Z,18.73
2019-06-07T05:33:58.053Z,18.77
2019-06-07T05:35:03.847Z,18.84
2019-06-07T05:36:08.831Z,18.90
2019-06-07T05:37:14.378Z,18.96
2019-06-07T05:38:19.457Z,19.01
2019-06-07T05:39:25.005Z,19.06
2019-06-07T05:40:40.105Z,19.10
2019-06-07T05:41:45.693Z,19.16
2019-06-07T05:42:50.615Z,19.20
2019-06-07T05:44:12.056Z,19.24
2019-06-07T05:45:03.153Z,19.29
2019-06-07T05:46:09.070Z,19.33
2019-06-07T05:47:14.661Z,19.37
2019-06-07T05:48:20.244Z,19.41
2019-06-07T05:49:25.222Z,19.44
2019-06-07T05:50:42.623Z,19.45
2019-06-07T05:51:41.592Z,19.46
2019-06-07T05:52:47.527Z,19.48
2019-06-07T05:53:52.121Z,19.52
2019-06-07T05:54:57.979Z,19.55
2019-06-07T05:56:03.176Z,19.61
2019-06-07T05:57:08.977Z,19.65
2019-06-07T05:58:13.920Z,19.69
2019-06-07T05:59:19.886Z,19.73
2019-06-07T06:00:25.277Z,19.77
2019-06-07T06:01:46.008Z,19.82
2019-06-07T06:02:58.672Z,19.86
2019-06-07T06:03:48.027Z,19.90
2019-06-07T06:04:52.162Z,19.97
2019-06-07T06:05:58.061Z,20.01
2019-06-07T06:07:03.073Z,20.07
2019-06-07T06:08:09.034Z,20.12
2019-06-07T06:09:14.368Z,20.16
2019-06-07T06:10:20.010Z,20.22
2019-06-07T06:11:43.343Z,20.26
2019-06-07T06:12:38.220Z,20.34
2019-06-07T06:14:01.531Z,20.39
2019-06-07T06:14:47.186Z,20.42
2019-06-07T06:16:01.449Z,20.46
2019-06-07T06:16:59.858Z,20.51
2019-06-07T06:18:05.011Z,20.55
2019-06-07T06:19:10.739Z,20.57
2019-06-07T06:20:16.055Z,20.61
2019-06-07T06:21:21.945Z,20.67
2019-06-07T06:22:26.974Z,20.70
2019-06-07T06:23:32.560Z,20.68
2019-06-07T06:24:39.376Z,20.70
2019-06-07T06:25:53.695Z,20.76
2019-06-07T06:26:56.995Z,20.78
2019-06-07T06:28:12.454Z,20.81
2019-06-07T06:29:05.876Z,20.81
2019-06-07T06:30:13.067Z,20.84
2019-06-07T06:31:18.052Z,20.85
2019-06-07T06:32:41.654Z,20.90
2019-06-07T06:33:34.405Z,20.96
2019-06-07T06:34:40.131Z,21.02
2019-06-07T06:35:47.467Z,21.05
2019-06-07T06:36:51.687Z,21.06
2019-06-07T06:37:57.077Z,21.08
2019-06-07T06:39:02.681Z,21.09
2019-06-07T06:40:08.194Z,21.08
2019-06-07T06:41:16.358Z,21.08
2019-06-07T06:42:20.997Z,21.14
2019-06-07T06:43:26.736Z,21.18
2019-06-07T06:44:31.625Z,21.22
2019-06-07T06:45:37.700Z,21.22
2019-06-07T06:46:47.222Z,21.21
2019-06-07T06:47:50.727Z,21.17
2019-06-07T06:48:55.971Z,21.17
2019-06-07T06:50:03.416Z,21.18
2019-06-07T06:51:08.590Z,21.17
2019-06-07T06:52:14.291Z,21.13
2019-06-07T06:53:19.242Z,21.12
2019-06-07T06:54:40.183Z,21.10
2019-06-07T06:55:31.603Z,21.12
2019-06-07T06:56:37.209Z,21.16
2019-06-07T06:57:43.409Z,21.18
2019-06-07T06:59:27.339Z,21.22
2019-06-07T06:59:56.310Z,21.27
2019-06-07T07:01:06.636Z,21.32
2019-06-07T07:02:08.579Z,21.35
2019-06-07T07:04:22.282Z,21.40
2019-06-07T07:05:27.946Z,21.40
2019-06-07T07:06:33.098Z,21.39
2019-06-07T07:07:38.791Z,21.35
2019-06-07T07:08:47.469Z,21.29
2019-06-07T07:09:58.158Z,21.28
2019-06-07T07:10:58.700Z,21.23
2019-06-07T07:12:12.038Z,21.18
2019-06-07T07:13:11.368Z,21.12
2019-06-07T07:14:16.967Z,21.09
2019-06-07T07:15:22.068Z,21.05
2019-06-07T07:16:28.115Z,21.03
2019-06-07T07:17:50.644Z,21.00
2019-06-07T07:18:41.741Z,20.96
2019-06-07T07:19:49.784Z,20.90
2019-06-07T07:20:57.300Z,20.87
2019-06-07T07:22:01.384Z,20.83
2019-06-07T07:23:07.442Z,20.82
2019-06-07T07:24:21.746Z,20.80
2019-06-07T07:25:20.054Z,20.78
2019-06-07T07:26:25.643Z,20.77
2019-06-07T07:27:31.172Z,20.77
2019-06-07T07:28:36.242Z,20.79
2019-06-07T07:29:44.520Z,20.80
2019-06-07T07:30:54.408Z,20.80
2019-06-07T07:31:56.910Z,20.82
2019-06-07T07:33:02.202Z,20.84
2019-06-07T07:35:15.017Z,20.91
2019-06-07T07:36:38.154Z,20.92
2019-06-07T07:37:27.715Z,20.92
2019-06-07T07:38:33.465Z,20.96
2019-06-07T07:39:38.626Z,20.97
2019-06-07T07:42:15.316Z,20.92
2019-06-07T07:42:59.091Z,20.90
2019-06-07T07:44:07.283Z,20.89
2019-06-07T07:45:11.949Z,20.88
2019-06-07T07:46:29.251Z,20.89
2019-06-07T07:47:24.170Z,20.90
2019-06-07T07:48:29.142Z,20.93
2019-06-07T07:49:34.988Z,20.94
2019-06-07T07:50:40.316Z,20.96
2019-06-07T07:51:46.444Z,20.95
2019-06-07T07:52:56.032Z,20.95
2019-06-07T07:54:10.299Z,20.93
2019-06-07T07:55:05.976Z,20.92
2019-06-07T07:56:11.534Z,20.90
2019-06-07T07:57:16.425Z,20.90
2019-06-07T07:58:23.222Z,20.91
2019-06-07T07:59:41.874Z,20.91
2019-06-07T08:00:52.428Z,20.91
2019-06-07T08:01:42.904Z,20.90
2019-06-07T08:02:49.839Z,20.88
2019-06-07T08:03:56.598Z,20.87
2019-06-07T08:05:25.526Z,20.87
2019-06-07T08:06:09.308Z,20.86
2019-06-07T08:07:15.301Z,20.85
2019-06-07T08:08:20.334Z,20.83
2019-06-07T08:09:25.894Z,20.81
2019-06-07T08:10:30.823Z,20.77
2019-06-07T08:11:36.385Z,20.77
2019-06-07T08:13:00.160Z,20.72
2019-06-07T08:13:50.486Z,20.70
2019-06-07T08:14:58.491Z,20.69
2019-06-07T08:16:08.889Z,20.69
2019-06-07T08:17:10.023Z,20.70
2019-06-07T08:18:15.773Z,20.70
2019-06-07T08:19:20.778Z,20.69
2019-06-07T08:20:26.485Z,20.70
2019-06-07T08:21:31.440Z,20.70
2019-06-07T08:22:36.984Z,20.70
2019-06-07T08:23:41.899Z,20.71
2019-06-07T08:24:50.476Z,20.72
2019-06-07T08:25:57.269Z,20.71
2019-06-07T08:27:24.814Z,20.72
2019-06-07T08:28:09.190Z,20.72
2019-06-07T08:29:14.716Z,20.73
2019-06-07T08:30:47.989Z,20.75
2019-06-07T08:31:27.406Z,20.77
2019-06-07T08:32:32.374Z,20.79
2019-06-07T08:33:38.055Z,20.85
2019-06-07T08:34:43.557Z,20.88
2019-06-07T08:36:19.418Z,20.89
2019-06-07T08:37:00.124Z,20.88
2019-06-07T08:39:09.809Z,20.88
2019-06-07T08:40:17.028Z,20.89
2019-06-07T08:41:22.202Z,20.91
2019-06-07T08:42:37.087Z,20.93
2019-06-07T08:43:34.673Z,20.97
2019-06-07T08:44:40.248Z,21.03
2019-06-07T08:45:45.352Z,21.07
2019-06-07T08:46:56.627Z,21.09
2019-06-07T08:48:04.485Z,21.10
2019-06-07T08:49:05.557Z,21.12
2019-06-07T08:50:11.272Z,21.14
2019-06-07T08:51:16.856Z,21.14
2019-06-07T08:52:21.747Z,21.15
2019-06-07T08:53:27.483Z,21.14
2019-06-07T08:54:32.934Z,21.19
2019-06-07T08:55:38.875Z,21.22
2019-06-07T08:56:43.868Z,21.24
2019-06-07T08:57:49.376Z,21.29
2019-06-07T08:58:56.865Z,21.35
2019-06-07T09:00:15.733Z,21.37
2019-06-07T09:01:09.278Z,21.38
2019-06-07T09:02:23.596Z,21.38
2019-06-07T09:03:22.124Z,21.41
2019-06-07T09:04:28.061Z,21.43
2019-06-07T09:05:33.297Z,21.44
2019-06-07T09:07:02.431Z,21.47
2019-06-07T09:07:45.779Z,21.48
2019-06-07T09:08:51.943Z,21.51
2019-06-07T09:10:03.156Z,21.50
2019-06-07T09:11:10.896Z,21.48
2019-06-07T09:12:12.671Z,21.48
2019-06-07T09:13:18.258Z,21.49
2019-06-07T09:14:23.560Z,21.48
2019-06-07T09:15:29.459Z,21.48
2019-06-07T09:16:34.571Z,21.49
2019-06-07T09:18:29.042Z,21.53
2019-06-07T09:18:46.984Z,21.57
2019-06-07T09:19:54.151Z,21.61
2019-06-07T09:21:01.215Z,21.64
2019-06-07T09:22:10.872Z,21.64
2019-06-07T09:23:17.337Z,21.66
2019-06-07T09:24:21.179Z,21.67
2019-06-07T09:25:26.505Z,21.70
2019-06-07T09:26:32.336Z,21.72
2019-06-07T09:27:37.653Z,21.72
2019-06-07T09:28:43.452Z,21.73
2019-06-07T09:29:48.715Z,21.74
2019-06-07T09:30:54.356Z,21.76
2019-06-07T09:32:01.988Z,21.78
2019-06-07T09:33:07.075Z,21.79
2019-06-07T09:34:15.103Z,21.79
2019-06-07T09:35:19.871Z,21.79
2019-06-07T09:36:24.836Z,21.80
2019-06-07T09:38:37.910Z,21.81
2019-06-07T09:39:43.984Z,21.81
2019-06-07T09:40:49.166Z,21.81
2019-06-07T09:41:56.301Z,21.80
2019-06-07T09:43:47.447Z,21.80
2019-06-07T09:44:21.387Z,21.82
2019-06-07T09:45:17.039Z,21.85
2019-06-07T09:46:22.651Z,21.87
2019-06-07T09:47:32.292Z,21.86
2019-06-07T09:49:10.023Z,21.85
2019-06-07T09:49:42.563Z,21.85
2019-06-07T09:50:48.093Z,21.85
2019-06-07T09:51:53.339Z,21.85
2019-06-07T09:53:10.086Z,21.83
2019-06-07T09:54:08.625Z,21.82
2019-06-07T09:55:23.718Z,21.81
2019-06-07T09:56:19.836Z,21.85
2019-06-07T09:57:25.358Z,21.88
2019-06-07T09:58:51.128Z,21.89
2019-06-07T09:59:37.895Z,21.89
2019-06-07T10:00:43.154Z,21.90
2019-06-07T10:01:49.571Z,21.91
2019-06-07T10:02:54.641Z,21.95
2019-06-07T10:04:04.647Z,21.99
2019-06-07T10:05:13.673Z,22.03
2019-06-07T10:06:15.802Z,22.08
2019-06-07T10:07:31.431Z,22.13
2019-06-07T10:10:43.591Z,22.23
2019-06-07T10:11:48.636Z,22.28
2019-06-07T10:12:54.695Z,22.32
2019-06-07T10:14:00.318Z,22.37
2019-06-07T10:15:07.392Z,22.45
2019-06-07T10:16:12.577Z,22.47
2019-06-07T10:17:18.093Z,22.48
2019-06-07T10:18:23.029Z,22.47
2019-06-07T10:19:29.147Z,22.49
2019-06-07T10:20:34.540Z,22.48
2019-06-07T10:21:40.213Z,22.51
2019-06-07T10:22:45.518Z,22.51
2019-06-07T10:23:51.105Z,22.54
2019-06-07T10:24:56.391Z,22.56
2019-06-07T10:26:01.930Z,22.58
2019-06-07T10:27:07.926Z,22.57
2019-06-07T10:28:13.650Z,22.59
2019-06-07T10:29:18.558Z,22.62
2019-06-07T10:30:24.529Z,22.65
2019-06-07T10:31:29.753Z,22.65
2019-06-07T10:32:35.727Z,22.64
2019-06-07T10:33:40.860Z,22.66
2019-06-07T10:34:46.555Z,22.65
2019-06-07T10:35:51.819Z,22.64
2019-06-07T10:36:57.359Z,22.62
2019-06-07T10:38:02.496Z,22.60
2019-06-07T10:39:09.115Z,22.59
2019-06-07T10:40:14.429Z,22.58
2019-06-07T10:41:20.019Z,22.57
2019-06-07T10:42:24.921Z,22.55
2019-06-07T10:43:30.709Z,22.55
2019-06-07T10:44:35.697Z,22.54
2019-06-07T10:45:41.558Z,22.53
2019-06-07T10:46:46.634Z,22.53
2019-06-07T10:47:52.208Z,22.54
2019-06-07T10:48:57.270Z,22.56
2019-06-07T10:50:03.882Z,22.61
2019-06-07T10:51:11.426Z,22.68
2019-06-07T10:52:16.513Z,22.78
2019-06-07T10:53:21.439Z,22.87
2019-06-07T10:54:30.697Z,22.99
2019-06-07T10:55:33.734Z,23.08
2019-06-07T10:56:39.339Z,23.16
2019-06-07T10:57:44.457Z,23.20
2019-06-07T10:58:50.295Z,23.25
2019-06-07T10:59:55.577Z,23.26
2019-06-07T11:01:01.231Z,23.27
2019-06-07T11:02:07.810Z,23.31
2019-06-07T11:03:14.230Z,23.33
2019-06-07T11:04:19.244Z,23.33
2019-06-07T11:05:24.870Z,23.34
2019-06-07T11:06:29.869Z,23.38
2019-06-07T11:07:35.929Z,23.41
2019-06-07T11:08:41.305Z,23.40
2019-06-07T11:09:47.012Z,23.37
2019-06-07T11:10:52.028Z,23.36
2019-06-07T11:11:57.809Z,23.36
2019-06-07T11:13:04.074Z,23.36
2019-06-07T11:14:10.578Z,23.38
2019-06-07T11:15:16.445Z,23.40
2019-06-07T11:16:21.899Z,23.38
2019-06-07T11:17:26.989Z,23.39
2019-06-07T11:18:32.782Z,23.39
2019-06-07T11:19:37.921Z,23.39
2019-06-07T11:20:43.613Z,23.41
2019-06-07T11:21:48.597Z,23.41
2019-06-07T11:22:54.323Z,23.41
2019-06-07T11:23:59.590Z,23.42
2019-06-07T11:25:07.801Z,23.43
2019-06-07T11:26:14.456Z,23.47
2019-06-07T11:27:20.086Z,23.51
2019-06-07T11:28:25.488Z,23.51
2019-06-07T11:29:31.119Z,23.51
2019-06-07T11:30:36.135Z,23.51
2019-06-07T11:31:41.767Z,23.51
2019-06-07T11:32:46.795Z,23.50
2019-06-07T11:33:52.638Z,23.51
2019-06-07T11:34:57.601Z,23.54
2019-06-07T11:36:03.093Z,23.59
2019-06-07T11:37:09.393Z,23.63
2019-06-07T11:38:16.344Z,23.67
2019-06-07T11:39:21.376Z,23.72
2019-06-07T11:40:34.885Z,23.76
2019-06-07T11:41:34.028Z,23.82
2019-06-07T11:42:39.594Z,23.83
2019-06-07T11:43:44.572Z,23.83
2019-06-07T11:44:56.916Z,23.83
2019-06-07T11:45:57.470Z,23.82
2019-06-07T11:47:03.020Z,23.81
2019-06-07T11:48:09.085Z,23.81
2019-06-07T11:49:19.917Z,23.80
2019-06-07T11:50:21.654Z,23.81
2019-06-07T11:51:27.554Z,23.83
2019-06-07T11:52:32.581Z,23.82
2019-06-07T11:53:38.085Z,23.82
2019-06-07T11:54:43.083Z,23.83
2019-06-07T11:55:48.730Z,23.85
2019-06-07T11:56:53.837Z,23.85
2019-06-07T11:57:59.427Z,23.89
2019-06-07T11:59:05.026Z,23.93
2019-06-07T12:00:13.956Z,24.02
2019-06-07T12:01:19.099Z,24.09
2019-06-07T12:02:26.127Z,24.18
2019-06-07T12:03:31.207Z,24.29
2019-06-07T12:04:37.212Z,24.43
2019-06-07T12:05:42.446Z,24.59
2019-06-07T12:06:48.068Z,24.75
2019-06-07T12:07:53.165Z,24.88
2019-06-07T12:08:59.142Z,25.01
2019-06-07T12:10:04.665Z,25.11
2019-06-07T12:11:10.352Z,25.20
2019-06-07T12:12:16.563Z,25.27
2019-06-07T12:13:22.455Z,25.33
2019-06-07T12:14:27.807Z,25.37
2019-06-07T12:15:33.442Z,25.39
2019-06-07T12:16:38.670Z,25.37
2019-06-07T12:17:44.316Z,25.31
2019-06-07T12:18:49.614Z,25.26
2019-06-07T12:19:55.169Z,25.21
2019-06-07T12:21:00.467Z,25.19
2019-06-07T12:22:06.048Z,25.18
2019-06-07T12:23:12.035Z,25.21
2019-06-07T12:24:19.480Z,25.21
2019-06-07T12:25:25.239Z,25.22
2019-06-07T12:26:31.506Z,24.99
2019-06-07T12:27:36.773Z,24.74
2019-06-07T12:28:42.486Z,24.54
2019-06-07T12:29:47.403Z,24.44
2019-06-07T12:30:55.241Z,24.38
2019-06-07T12:32:00.175Z,24.41
2019-06-07T12:33:05.829Z,24.47
2019-06-07T12:34:11.297Z,24.53
2019-06-07T12:35:17.767Z,24.61
2019-06-07T12:36:22.816Z,24.67
2019-06-07T12:37:42.653Z,24.75
2019-06-07T12:38:34.992Z,24.82
2019-06-07T12:39:40.490Z,24.85
2019-06-07T12:40:57.238Z,24.87
2019-06-07T12:41:53.210Z,24.89
2019-06-07T12:42:58.189Z,24.92
2019-06-07T12:44:04.087Z,24.95
2019-06-07T12:45:09.780Z,24.96
2019-06-07T12:46:22.390Z,24.99
2019-06-07T12:47:23.176Z,25.03
2019-06-07T12:48:28.874Z,25.09
2019-06-07T12:49:33.947Z,25.14
2019-06-07T12:50:43.167Z,25.19
2019-06-07T12:51:46.395Z,25.24
2019-06-07T12:52:52.285Z,25.28
2019-06-07T12:53:57.358Z,25.28
2019-06-07T12:55:03.020Z,25.30
2019-06-07T12:56:08.107Z,25.32
2019-06-07T12:57:14.089Z,25.31
2019-06-07T12:58:28.164Z,25.32
2019-06-07T12:59:26.777Z,25.33
2019-06-07T13:00:31.901Z,25.34
2019-06-07T13:01:37.465Z,25.36
2019-06-07T13:02:42.532Z,25.39
2019-06-07T13:03:48.102Z,25.43
2019-06-07T13:04:53.542Z,25.48
2019-06-07T13:06:02.959Z,25.51
2019-06-07T13:07:08.356Z,25.55
2019-06-07T13:08:17.674Z,25.59
2019-06-07T13:09:23.949Z,25.61
2019-06-07T13:10:29.785Z,25.62
2019-06-07T13:11:34.774Z,25.61
2019-06-07T13:12:43.928Z,25.60
2019-06-07T13:13:50.254Z,25.60
2019-06-07T13:14:55.955Z,25.60
2019-06-07T13:16:01.443Z,25.62
2019-06-07T13:17:07.129Z,25.64
2019-06-07T13:18:14.993Z,25.65
2019-06-07T13:19:20.098Z,25.67
2019-06-07T13:20:25.245Z,25.69
2019-06-07T13:21:31.277Z,25.73
2019-06-07T13:22:36.435Z,25.77
2019-06-07T13:23:44.404Z,25.79
2019-06-07T13:24:49.002Z,25.82
2019-06-07T13:25:54.887Z,25.82
2019-06-07T13:26:59.902Z,25.83
2019-06-07T13:28:05.748Z,25.85
2019-06-07T13:29:10.726Z,25.87
2019-06-07T13:30:16.968Z,25.89
2019-06-07T13:31:23.417Z,25.90
2019-06-07T13:32:29.229Z,25.90
2019-06-07T13:33:38.624Z,25.90
2019-06-07T13:34:41.743Z,25.89
2019-06-07T13:35:46.810Z,25.89
2019-06-07T13:36:52.391Z,25.87
2019-06-07T13:37:59.702Z,25.87
2019-06-07T13:39:05.350Z,25.86
2019-06-07T13:40:10.695Z,25.86
2019-06-07T13:41:30.179Z,25.87
2019-06-07T13:42:22.989Z,25.87
2019-06-07T13:43:28.566Z,25.90
2019-06-07T13:44:33.813Z,25.90
2019-06-07T13:45:39.513Z,25.92
2019-06-07T13:46:44.666Z,25.94
2019-06-07T13:47:50.321Z,25.96
2019-06-07T13:48:55.233Z,25.98
2019-06-07T13:50:00.761Z,25.97
2019-06-07T13:51:05.642Z,25.95
2019-06-07T13:52:11.159Z,25.92
2019-06-07T13:53:16.122Z,25.90
2019-06-07T13:54:22.755Z,25.89
2019-06-07T13:55:28.072Z,25.88
2019-06-07T13:56:33.569Z,25.90
2019-06-07T13:57:38.943Z,25.90
2019-06-07T13:58:44.440Z,25.89
2019-06-07T13:59:49.430Z,25.89
2019-06-07T14:00:55.282Z,25.91
2019-06-07T14:02:00.264Z,25.95
2019-06-07T14:03:11.763Z,26.01
2019-06-07T14:04:16.849Z,26.09
2019-06-07T14:05:23.047Z,26.17
2019-06-07T14:06:31.455Z,26.23
2019-06-07T14:07:37.149Z,26.27
2019-06-07T14:08:42.027Z,26.29
2019-06-07T14:09:47.522Z,26.28
2019-06-07T14:10:52.725Z,26.29
2019-06-07T14:11:58.642Z,26.28
2019-06-07T14:13:04.052Z,26.27
2019-06-07T14:14:09.676Z,26.29
2019-06-07T14:15:15.395Z,26.30
2019-06-07T14:16:22.099Z,26.32
2019-06-07T14:17:28.315Z,26.33
2019-06-07T14:18:36.290Z,26.36
2019-06-07T14:19:41.506Z,26.37
2019-06-07T14:20:47.029Z,26.37
2019-06-07T14:21:52.114Z,26.41
2019-06-07T14:22:57.627Z,26.44